sensor_id;sensor_type;location;lat;lon;timestamp;temperature;humidity
52517;DHT22;59374;53.210;5.726;2022-08-04T00:04:48;18.90;99.90
52517;DHT22;59374;53.210;5.726;2022-08-04T00:12:15;18.90;99.90
52517;DHT22;59374;53.210;5.726;2022-08-04T00:14:45;18.80;99.90
52517;DHT22;59374;53.210;5.726;2022-08-04T00:17:11;18.90;99.90
52517;DHT22;59374;53.210;5.726;2022-08-04T00:19:40;18.80;99.90
52517;DHT22;59374;53.210;5.726;2022-08-04T00:22:09;18.80;99.90
52517;DHT22;59374;53.210;5.726;2022-08-04T00:24:35;18.80;99.90
52517;DHT22;59374;53.210;5.726;2022-08-04T00:27:01;18.80;99.90
52517;DHT22;59374;53.210;5.726;2022-08-04T00:29:27;18.80;99.90
52517;DHT22;59374;53.210;5.726;2022-08-04T00:31:53;18.80;99.90
52517;DHT22;59374;53.210;5.726;2022-08-04T00:34:19;18.70;99.90
52517;DHT22;59374;53.210;5.726;2022-08-04T00:36:45;18.80;99.90
52517;DHT22;59374;53.210;5.726;2022-08-04T00:39:11;18.70;99.90
52517;DHT22;59374;53.210;5.726;2022-08-04T00:44:24;18.70;99.90
52517;DHT22;59374;53.210;5.726;2022-08-04T00:49:32;18.70;99.90
52517;DHT22;59374;53.210;5.726;2022-08-04T00:52:17;18.70;99.90
52517;DHT22;59374;53.210;5.726;2022-08-04T00:59:52;18.60;99.90
52517;DHT22;59374;53.210;5.726;2022-08-04T01:05:01;18.60;99.90
52517;DHT22;59374;53.210;5.726;2022-08-04T01:12:48;18.50;99.90
52517;DHT22;59374;53.210;5.726;2022-08-04T01:20:10;18.40;99.90
52517;DHT22;59374;53.210;5.726;2022-08-04T01:22:49;18.40;99.90
52517;DHT22;59374;53.210;5.726;2022-08-04T01:30:48;18.30;99.90
52517;DHT22;59374;53.210;5.726;2022-08-04T01:33:16;18.30;99.90
52517;DHT22;59374;53.210;5.726;2022-08-04T01:35:47;18.30;99.90
52517;DHT22;59374;53.210;5.726;2022-08-04T01:38:32;18.30;99.90
52517;DHT22;59374;53.210;5.726;2022-08-04T01:40:59;18.30;99.90
52517;DHT22;59374;53.210;5.726;2022-08-04T01:43:27;18.30;99.90
52517;DHT22;59374;53.210;5.726;2022-08-04T01:45:57;18.30;99.90
52517;DHT22;59374;53.210;5.726;2022-08-04T01:48:23;18.30;99.90
52517;DHT22;59374;53.210;5.726;2022-08-04T01:50:50;18.30;99.90
52517;DHT22;59374;53.210;5.726;2022-08-04T01:53:16;18.30;99.90
52517;DHT22;59374;53.210;5.726;2022-08-04T01:55:43;18.40;99.90
52517;DHT22;59374;53.210;5.726;2022-08-04T01:58:09;18.40;99.90
52517;DHT22;59374;53.210;5.726;2022-08-04T02:00:35;18.30;99.90
52517;DHT22;59374;53.210;5.726;2022-08-04T02:03:02;18.30;99.90
52517;DHT22;59374;53.210;5.726;2022-08-04T02:05:28;18.30;99.90
52517;DHT22;59374;53.210;5.726;2022-08-04T02:13:22;18.40;99.90
52517;DHT22;59374;53.210;5.726;2022-08-04T02:16:00;18.40;99.90
52517;DHT22;59374;53.210;5.726;2022-08-04T02:21:00;18.50;99.90
52517;DHT22;59374;53.210;5.726;2022-08-04T02:23:45;18.50;99.90
52517;DHT22;59374;53.210;5.726;2022-08-04T02:26:18;18.50;99.90
52517;DHT22;59374;53.210;5.726;2022-08-04T02:28:47;18.50;99.90
52517;DHT22;59374;53.210;5.726;2022-08-04T02:34:00;18.50;99.90
52517;DHT22;59374;53.210;5.726;2022-08-04T02:36:28;18.50;99.90
52517;DHT22;59374;53.210;5.726;2022-08-04T02:38:55;18.50;99.90
52517;DHT22;59374;53.210;5.726;2022-08-04T02:41:24;18.50;99.90
52517;DHT22;59374;53.210;5.726;2022-08-04T02:43:50;18.50;99.90
52517;DHT22;59374;53.210;5.726;2022-08-04T02:46:17;18.50;99.90
52517;DHT22;59374;53.210;5.726;2022-08-04T02:48:44;18.50;99.90
52517;DHT22;59374;53.210;5.726;2022-08-04T02:51:10;18.50;99.90
52517;DHT22;59374;53.210;5.726;2022-08-04T02:53:37;18.50;99.90
52517;DHT22;59374;53.210;5.726;2022-08-04T02:56:03;18.50;99.90
52517;DHT22;59374;53.210;5.726;2022-08-04T02:58:33;18.50;99.90
52517;DHT22;59374;53.210;5.726;2022-08-04T03:01:00;18.50;99.90
52517;DHT22;59374;53.210;5.726;2022-08-04T03:09:22;18.50;99.90
52517;DHT22;59374;53.210;5.726;2022-08-04T03:12:19;18.50;99.90
52517;DHT22;59374;53.210;5.726;2022-08-04T03:25:23;18.50;99.90
52517;DHT22;59374;53.210;5.726;2022-08-04T03:36:22;18.60;99.90
52517;DHT22;59374;53.210;5.726;2022-08-04T03:51:57;18.60;99.90
52517;DHT22;59374;53.210;5.726;2022-08-04T04:21:26;18.70;99.90
52517;DHT22;59374;53.210;5.726;2022-08-04T04:26:31;18.70;99.90
52517;DHT22;59374;53.210;5.726;2022-08-04T04:33:54;18.70;99.90
52517;DHT22;59374;53.210;5.726;2022-08-04T04:36:27;18.80;99.90
52517;DHT22;59374;53.210;5.726;2022-08-04T04:39:15;18.80;99.90
52517;DHT22;59374;53.210;5.726;2022-08-04T04:41:54;18.80;99.90
52517;DHT22;59374;53.210;5.726;2022-08-04T04:44:31;18.80;99.90
52517;DHT22;59374;53.210;5.726;2022-08-04T04:54:40;18.90;99.90
52517;DHT22;59374;53.210;5.726;2022-08-04T04:57:15;18.90;99.90
52517;DHT22;59374;53.210;5.726;2022-08-04T04:59:46;18.90;99.90
52517;DHT22;59374;53.210;5.726;2022-08-04T05:05:01;19.00;99.90
52517;DHT22;59374;53.210;5.726;2022-08-04T05:07:40;19.00;99.90
52517;DHT22;59374;53.210;5.726;2022-08-04T05:15:36;19.20;99.90
52517;DHT22;59374;53.210;5.726;2022-08-04T05:18:05;19.20;99.90
52517;DHT22;59374;53.210;5.726;2022-08-04T05:20:37;19.20;99.90
52517;DHT22;59374;53.210;5.726;2022-08-04T05:23:08;19.30;99.90
52517;DHT22;59374;53.210;5.726;2022-08-04T05:28:11;19.30;99.90
52517;DHT22;59374;53.210;5.726;2022-08-04T05:30:38;19.40;99.90
52517;DHT22;59374;53.210;5.726;2022-08-04T05:33:13;19.40;99.90
52517;DHT22;59374;53.210;5.726;2022-08-04T05:35:40;19.50;99.90
52517;DHT22;59374;53.210;5.726;2022-08-04T05:38:07;19.60;99.90
52517;DHT22;59374;53.210;5.726;2022-08-04T05:40:33;19.70;99.90
52517;DHT22;59374;53.210;5.726;2022-08-04T05:42:59;19.70;99.90
52517;DHT22;59374;53.210;5.726;2022-08-04T05:45:25;19.80;99.90
52517;DHT22;59374;53.210;5.726;2022-08-04T05:47:51;19.90;99.90
52517;DHT22;59374;53.210;5.726;2022-08-04T05:50:18;20.00;99.90
52517;DHT22;59374;53.210;5.726;2022-08-04T05:52:44;20.00;99.90
52517;DHT22;59374;53.210;5.726;2022-08-04T05:55:10;20.20;99.90
52517;DHT22;59374;53.210;5.726;2022-08-04T05:57:40;20.30;99.90
52517;DHT22;59374;53.210;5.726;2022-08-04T06:00:05;20.30;99.90
52517;DHT22;59374;53.210;5.726;2022-08-04T06:02:32;20.40;99.90
52517;DHT22;59374;53.210;5.726;2022-08-04T06:04:58;20.50;99.90
52517;DHT22;59374;53.210;5.726;2022-08-04T06:07:25;20.50;99.90
52517;DHT22;59374;53.210;5.726;2022-08-04T06:09:50;20.50;99.90
52517;DHT22;59374;53.210;5.726;2022-08-04T06:12:17;20.60;99.90
52517;DHT22;59374;53.210;5.726;2022-08-04T06:14:46;20.60;99.90
52517;DHT22;59374;53.210;5.726;2022-08-04T06:17:14;20.60;99.90
52517;DHT22;59374;53.210;5.726;2022-08-04T06:19:40;20.60;99.90
52517;DHT22;59374;53.210;5.726;2022-08-04T06:22:06;20.60;99.90
52517;DHT22;59374;53.210;5.726;2022-08-04T06:24:34;20.60;99.90
52517;DHT22;59374;53.210;5.726;2022-08-04T06:27:00;20.60;99.90
52517;DHT22;59374;53.210;5.726;2022-08-04T06:29:28;20.60;99.90
52517;DHT22;59374;53.210;5.726;2022-08-04T06:32:01;20.60;99.90
52517;DHT22;59374;53.210;5.726;2022-08-04T06:34:28;20.70;99.90
52517;DHT22;59374;53.210;5.726;2022-08-04T06:36:54;20.70;99.90
52517;DHT22;59374;53.210;5.726;2022-08-04T06:39:23;20.80;99.90
52517;DHT22;59374;53.210;5.726;2022-08-04T06:41:51;20.80;99.90
52517;DHT22;59374;53.210;5.726;2022-08-04T06:44:17;20.90;99.90
52517;DHT22;59374;53.210;5.726;2022-08-04T06:46:44;21.00;99.90
52517;DHT22;59374;53.210;5.726;2022-08-04T06:49:10;21.10;99.90
52517;DHT22;59374;53.210;5.726;2022-08-04T06:51:36;21.10;99.90
52517;DHT22;59374;53.210;5.726;2022-08-04T06:54:03;21.30;99.90
52517;DHT22;59374;53.210;5.726;2022-08-04T06:56:29;21.30;99.90
52517;DHT22;59374;53.210;5.726;2022-08-04T06:58:55;21.30;99.90
52517;DHT22;59374;53.210;5.726;2022-08-04T07:01:22;21.40;99.90
52517;DHT22;59374;53.210;5.726;2022-08-04T07:03:49;21.30;99.90
52517;DHT22;59374;53.210;5.726;2022-08-04T07:06:15;21.40;99.90
52517;DHT22;59374;53.210;5.726;2022-08-04T07:08:43;21.40;99.90
52517;DHT22;59374;53.210;5.726;2022-08-04T07:11:09;21.50;99.90
52517;DHT22;59374;53.210;5.726;2022-08-04T07:13:35;21.60;99.90
52517;DHT22;59374;53.210;5.726;2022-08-04T07:16:01;21.70;99.90
52517;DHT22;59374;53.210;5.726;2022-08-04T07:18:29;21.70;99.90
52517;DHT22;59374;53.210;5.726;2022-08-04T07:20:54;21.80;99.90
52517;DHT22;59374;53.210;5.726;2022-08-04T07:23:22;21.80;99.90
52517;DHT22;59374;53.210;5.726;2022-08-04T07:25:51;21.90;99.90
52517;DHT22;59374;53.210;5.726;2022-08-04T07:28:18;22.00;99.90
52517;DHT22;59374;53.210;5.726;2022-08-04T07:30:44;22.00;99.90
52517;DHT22;59374;53.210;5.726;2022-08-04T07:33:09;22.10;99.90
52517;DHT22;59374;53.210;5.726;2022-08-04T07:35:36;22.20;99.90
52517;DHT22;59374;53.210;5.726;2022-08-04T07:38:02;22.20;99.90
52517;DHT22;59374;53.210;5.726;2022-08-04T07:40:28;22.30;99.90
52517;DHT22;59374;53.210;5.726;2022-08-04T07:42:53;22.40;99.90
52517;DHT22;59374;53.210;5.726;2022-08-04T07:45:19;22.50;99.90
52517;DHT22;59374;53.210;5.726;2022-08-04T07:47:45;22.60;99.90
52517;DHT22;59374;53.210;5.726;2022-08-04T07:50:10;22.70;99.90
52517;DHT22;59374;53.210;5.726;2022-08-04T07:52:37;22.80;99.90
52517;DHT22;59374;53.210;5.726;2022-08-04T07:55:03;22.90;99.90
52517;DHT22;59374;53.210;5.726;2022-08-04T07:57:29;23.00;99.90
52517;DHT22;59374;53.210;5.726;2022-08-04T07:59:54;23.10;99.90
52517;DHT22;59374;53.210;5.726;2022-08-04T08:02:20;23.30;99.90
52517;DHT22;59374;53.210;5.726;2022-08-04T08:04:46;23.40;99.90
52517;DHT22;59374;53.210;5.726;2022-08-04T08:07:12;23.60;99.90
52517;DHT22;59374;53.210;5.726;2022-08-04T08:09:38;23.60;99.90
52517;DHT22;59374;53.210;5.726;2022-08-04T08:12:03;23.70;99.90
52517;DHT22;59374;53.210;5.726;2022-08-04T08:14:31;23.80;99.90
52517;DHT22;59374;53.210;5.726;2022-08-04T08:16:59;23.80;99.90
52517;DHT22;59374;53.210;5.726;2022-08-04T08:19:26;23.90;99.90
52517;DHT22;59374;53.210;5.726;2022-08-04T08:21:52;24.00;99.90
52517;DHT22;59374;53.210;5.726;2022-08-04T08:24:18;24.10;99.90
52517;DHT22;59374;53.210;5.726;2022-08-04T08:26:43;24.20;99.90
52517;DHT22;59374;53.210;5.726;2022-08-04T08:29:09;24.30;99.90
52517;DHT22;59374;53.210;5.726;2022-08-04T08:31:34;24.40;99.90
52517;DHT22;59374;53.210;5.726;2022-08-04T08:34:01;24.40;99.90
52517;DHT22;59374;53.210;5.726;2022-08-04T08:39:25;24.30;99.90
52517;DHT22;59374;53.210;5.726;2022-08-04T08:44:54;24.50;99.90
52517;DHT22;59374;53.210;5.726;2022-08-04T08:54:52;24.70;99.90
52517;DHT22;59374;53.210;5.726;2022-08-04T09:05:16;25.00;99.90
52517;DHT22;59374;53.210;5.726;2022-08-04T09:10:47;25.10;99.90
52517;DHT22;59374;53.210;5.726;2022-08-04T09:15:43;25.40;99.90
52517;DHT22;59374;53.210;5.726;2022-08-04T09:18:12;25.50;99.90
52517;DHT22;59374;53.210;5.726;2022-08-04T09:25:56;25.30;99.90
52517;DHT22;59374;53.210;5.726;2022-08-04T09:28:23;25.10;99.90
52517;DHT22;59374;53.210;5.726;2022-08-04T09:31:03;25.20;99.90
52517;DHT22;59374;53.210;5.726;2022-08-04T09:33:39;25.20;99.90
52517;DHT22;59374;53.210;5.726;2022-08-04T09:36:09;25.20;99.90
52517;DHT22;59374;53.210;5.726;2022-08-04T09:51:24;25.30;99.90
52517;DHT22;59374;53.210;5.726;2022-08-04T09:54:03;25.30;99.90
52517;DHT22;59374;53.210;5.726;2022-08-04T09:56:33;25.40;99.90
52517;DHT22;59374;53.210;5.726;2022-08-04T10:01:58;25.40;99.90
52517;DHT22;59374;53.210;5.726;2022-08-04T10:04:27;25.40;99.90
52517;DHT22;59374;53.210;5.726;2022-08-04T10:07:02;25.50;99.90
52517;DHT22;59374;53.210;5.726;2022-08-04T10:09:42;25.60;99.90
52517;DHT22;59374;53.210;5.726;2022-08-04T10:19:34;25.70;99.90
52517;DHT22;59374;53.210;5.726;2022-08-04T10:27:15;25.80;99.90
52517;DHT22;59374;53.210;5.726;2022-08-04T10:29:46;25.90;99.90
52517;DHT22;59374;53.210;5.726;2022-08-04T10:32:20;26.10;99.90
52517;DHT22;59374;53.210;5.726;2022-08-04T10:34:54;26.30;99.90
52517;DHT22;59374;53.210;5.726;2022-08-04T10:37:27;26.10;99.90
52517;DHT22;59374;53.210;5.726;2022-08-04T10:40:15;25.80;99.90
52517;DHT22;59374;53.210;5.726;2022-08-04T10:45:48;25.60;99.90
52517;DHT22;59374;53.210;5.726;2022-08-04T10:48:20;25.70;99.90
52517;DHT22;59374;53.210;5.726;2022-08-04T10:50:49;25.60;99.90
52517;DHT22;59374;53.210;5.726;2022-08-04T10:53:18;25.60;99.90
52517;DHT22;59374;53.210;5.726;2022-08-04T10:56:28;25.50;99.90
52517;DHT22;59374;53.210;5.726;2022-08-04T10:58:35;25.30;99.90
52517;DHT22;59374;53.210;5.726;2022-08-04T11:01:01;25.30;99.90
52517;DHT22;59374;53.210;5.726;2022-08-04T11:03:34;25.30;99.90
52517;DHT22;59374;53.210;5.726;2022-08-04T11:06:02;25.50;99.90
52517;DHT22;59374;53.210;5.726;2022-08-04T11:08:42;25.60;99.90
52517;DHT22;59374;53.210;5.726;2022-08-04T11:11:12;25.80;99.90
52517;DHT22;59374;53.210;5.726;2022-08-04T11:13:51;25.70;99.90
52517;DHT22;59374;53.210;5.726;2022-08-04T11:16:40;25.80;99.90
52517;DHT22;59374;53.210;5.726;2022-08-04T11:19:09;25.70;99.90
52517;DHT22;59374;53.210;5.726;2022-08-04T11:21:44;25.80;99.90
52517;DHT22;59374;53.210;5.726;2022-08-04T11:24:19;25.80;99.70
52517;DHT22;59374;53.210;5.726;2022-08-04T11:26:48;25.70;99.40
52517;DHT22;59374;53.210;5.726;2022-08-04T11:29:16;25.50;99.90
52517;DHT22;59374;53.210;5.726;2022-08-04T11:31:44;25.60;99.90
52517;DHT22;59374;53.210;5.726;2022-08-04T11:34:22;25.80;99.90
52517;DHT22;59374;53.210;5.726;2022-08-04T11:39:32;25.90;99.90
52517;DHT22;59374;53.210;5.726;2022-08-04T11:47:08;25.60;99.90
52517;DHT22;59374;53.210;5.726;2022-08-04T11:49:43;25.40;99.90
52517;DHT22;59374;53.210;5.726;2022-08-04T11:52:11;25.30;99.90
52517;DHT22;59374;53.210;5.726;2022-08-04T11:54:38;25.10;99.90
52517;DHT22;59374;53.210;5.726;2022-08-04T11:57:04;25.10;99.90
52517;DHT22;59374;53.210;5.726;2022-08-04T11:59:30;25.10;99.90
52517;DHT22;59374;53.210;5.726;2022-08-04T12:05:00;25.60;99.90
52517;DHT22;59374;53.210;5.726;2022-08-04T12:07:31;26.00;99.90
52517;DHT22;59374;53.210;5.726;2022-08-04T12:20:41;27.40;99.90
52517;DHT22;59374;53.210;5.726;2022-08-04T12:23:23;27.40;99.90
52517;DHT22;59374;53.210;5.726;2022-08-04T12:25:51;27.10;99.90
52517;DHT22;59374;53.210;5.726;2022-08-04T12:28:21;26.90;99.90
52517;DHT22;59374;53.210;5.726;2022-08-04T12:30:50;26.50;99.90
52517;DHT22;59374;53.210;5.726;2022-08-04T12:33:22;26.20;99.90
52517;DHT22;59374;53.210;5.726;2022-08-04T12:35:54;26.00;99.90
52517;DHT22;59374;53.210;5.726;2022-08-04T12:38:21;25.70;99.90
52517;DHT22;59374;53.210;5.726;2022-08-04T12:40:49;25.60;99.90
52517;DHT22;59374;53.210;5.726;2022-08-04T12:43:19;25.40;99.90
52517;DHT22;59374;53.210;5.726;2022-08-04T12:45:52;25.20;99.90
52517;DHT22;59374;53.210;5.726;2022-08-04T12:48:18;25.20;99.90
52517;DHT22;59374;53.210;5.726;2022-08-04T12:50:47;25.30;99.90
52517;DHT22;59374;53.210;5.726;2022-08-04T12:53:14;25.30;99.90
52517;DHT22;59374;53.210;5.726;2022-08-04T12:55:47;25.50;99.90
52517;DHT22;59374;53.210;5.726;2022-08-04T12:58:15;25.60;99.90
52517;DHT22;59374;53.210;5.726;2022-08-04T13:00:42;26.10;99.90
52517;DHT22;59374;53.210;5.726;2022-08-04T13:03:10;26.70;99.90
52517;DHT22;59374;53.210;5.726;2022-08-04T13:05:36;26.80;99.90
52517;DHT22;59374;53.210;5.726;2022-08-04T13:08:03;26.40;99.90
52517;DHT22;59374;53.210;5.726;2022-08-04T13:10:29;26.00;99.90
52517;DHT22;59374;53.210;5.726;2022-08-04T13:12:56;25.70;99.90
52517;DHT22;59374;53.210;5.726;2022-08-04T13:15:23;25.50;99.90
52517;DHT22;59374;53.210;5.726;2022-08-04T13:20:34;25.80;99.90
52517;DHT22;59374;53.210;5.726;2022-08-04T13:23:10;25.80;99.90
52517;DHT22;59374;53.210;5.726;2022-08-04T13:25:37;26.00;99.90
52517;DHT22;59374;53.210;5.726;2022-08-04T13:28:04;26.10;99.90
52517;DHT22;59374;53.210;5.726;2022-08-04T13:30:32;26.40;99.90
52517;DHT22;59374;53.210;5.726;2022-08-04T13:32:59;26.80;99.90
52517;DHT22;59374;53.210;5.726;2022-08-04T13:35:27;27.10;99.90
52517;DHT22;59374;53.210;5.726;2022-08-04T13:37:53;27.30;99.90
52517;DHT22;59374;53.210;5.726;2022-08-04T13:40:20;27.60;99.90
52517;DHT22;59374;53.210;5.726;2022-08-04T13:42:46;27.90;99.90
52517;DHT22;59374;53.210;5.726;2022-08-04T13:45:12;28.30;99.90
52517;DHT22;59374;53.210;5.726;2022-08-04T13:47:38;28.40;99.90
52517;DHT22;59374;53.210;5.726;2022-08-04T13:50:05;28.50;99.90
52517;DHT22;59374;53.210;5.726;2022-08-04T13:52:32;28.20;99.90
52517;DHT22;59374;53.210;5.726;2022-08-04T13:54:57;27.60;99.90
52517;DHT22;59374;53.210;5.726;2022-08-04T13:57:30;27.00;99.90
52517;DHT22;59374;53.210;5.726;2022-08-04T14:00:05;26.80;99.90
52517;DHT22;59374;53.210;5.726;2022-08-04T14:05:27;26.00;99.90
52517;DHT22;59374;53.210;5.726;2022-08-04T14:07:53;26.10;99.90
52517;DHT22;59374;53.210;5.726;2022-08-04T14:10:19;25.90;99.90
52517;DHT22;59374;53.210;5.726;2022-08-04T14:12:47;25.90;99.90
52517;DHT22;59374;53.210;5.726;2022-08-04T14:15:29;25.80;99.90
52517;DHT22;59374;53.210;5.726;2022-08-04T14:18:15;26.10;99.90
52517;DHT22;59374;53.210;5.726;2022-08-04T14:20:56;26.80;99.90
52517;DHT22;59374;53.210;5.726;2022-08-04T14:23:22;27.50;99.80
52517;DHT22;59374;53.210;5.726;2022-08-04T14:25:47;28.10;98.90
52517;DHT22;59374;53.210;5.726;2022-08-04T14:28:13;28.40;98.50
52517;DHT22;59374;53.210;5.726;2022-08-04T14:30:51;29.00;97.80
52517;DHT22;59374;53.210;5.726;2022-08-04T14:33:16;29.40;97.00
52517;DHT22;59374;53.210;5.726;2022-08-04T14:35:54;30.20;96.20
52517;DHT22;59374;53.210;5.726;2022-08-04T14:38:20;30.60;95.00
52517;DHT22;59374;53.210;5.726;2022-08-04T14:40:46;31.20;94.30
52517;DHT22;59374;53.210;5.726;2022-08-04T14:43:13;31.50;93.80
52517;DHT22;59374;53.210;5.726;2022-08-04T14:45:42;31.50;93.50
52517;DHT22;59374;53.210;5.726;2022-08-04T14:48:08;32.10;93.10
52517;DHT22;59374;53.210;5.726;2022-08-04T14:50:41;31.80;92.90
52517;DHT22;59374;53.210;5.726;2022-08-04T14:53:08;31.80;93.40
52517;DHT22;59374;53.210;5.726;2022-08-04T14:55:34;31.70;93.40
52517;DHT22;59374;53.210;5.726;2022-08-04T14:58:00;31.60;92.90
52517;DHT22;59374;53.210;5.726;2022-08-04T15:00:30;32.00;93.40
52517;DHT22;59374;53.210;5.726;2022-08-04T15:03:04;32.10;92.90
52517;DHT22;59374;53.210;5.726;2022-08-04T15:05:30;32.00;92.90
52517;DHT22;59374;53.210;5.726;2022-08-04T15:07:56;32.40;92.80
52517;DHT22;59374;53.210;5.726;2022-08-04T15:10:22;32.20;93.10
52517;DHT22;59374;53.210;5.726;2022-08-04T15:12:47;32.10;92.40
52517;DHT22;59374;53.210;5.726;2022-08-04T15:15:13;31.80;92.50
52517;DHT22;59374;53.210;5.726;2022-08-04T15:17:39;32.10;92.80
52517;DHT22;59374;53.210;5.726;2022-08-04T15:20:04;32.30;92.20
52517;DHT22;59374;53.210;5.726;2022-08-04T15:22:31;32.40;91.70
52517;DHT22;59374;53.210;5.726;2022-08-04T15:24:57;33.20;91.80
52517;DHT22;59374;53.210;5.726;2022-08-04T15:27:23;32.80;92.20
52517;DHT22;59374;53.210;5.726;2022-08-04T15:29:50;33.10;92.30
52517;DHT22;59374;53.210;5.726;2022-08-04T15:32:16;33.20;92.00
52517;DHT22;59374;53.210;5.726;2022-08-04T15:34:43;32.90;91.20
52517;DHT22;59374;53.210;5.726;2022-08-04T15:37:09;32.70;91.40
52517;DHT22;59374;53.210;5.726;2022-08-04T15:39:43;33.00;91.80
52517;DHT22;59374;53.210;5.726;2022-08-04T15:42:13;33.10;91.90
52517;DHT22;59374;53.210;5.726;2022-08-04T15:47:24;33.40;91.20
52517;DHT22;59374;53.210;5.726;2022-08-04T15:50:23;33.00;91.40
52517;DHT22;59374;53.210;5.726;2022-08-04T15:55:33;32.80;91.50
52517;DHT22;59374;53.210;5.726;2022-08-04T15:57:59;32.70;91.60
52517;DHT22;59374;53.210;5.726;2022-08-04T16:00:25;33.30;91.70
52517;DHT22;59374;53.210;5.726;2022-08-04T16:02:50;33.50;91.20
52517;DHT22;59374;53.210;5.726;2022-08-04T16:07:58;33.20;90.90
52517;DHT22;59374;53.210;5.726;2022-08-04T16:12:56;32.80;90.80
52517;DHT22;59374;53.210;5.726;2022-08-04T16:15:38;32.50;91.30
52517;DHT22;59374;53.210;5.726;2022-08-04T16:18:04;32.00;91.20
52517;DHT22;59374;53.210;5.726;2022-08-04T16:20:29;31.60;91.40
52517;DHT22;59374;53.210;5.726;2022-08-04T16:22:56;30.70;91.90
52517;DHT22;59374;53.210;5.726;2022-08-04T16:25:40;30.00;92.60
52517;DHT22;59374;53.210;5.726;2022-08-04T16:28:06;29.10;93.70
52517;DHT22;59374;53.210;5.726;2022-08-04T16:30:35;28.60;94.10
52517;DHT22;59374;53.210;5.726;2022-08-04T16:33:06;27.80;94.90
52517;DHT22;59374;53.210;5.726;2022-08-04T16:35:32;27.30;95.30
52517;DHT22;59374;53.210;5.726;2022-08-04T16:38:12;26.80;96.10
52517;DHT22;59374;53.210;5.726;2022-08-04T16:40:38;26.40;96.20
52517;DHT22;59374;53.210;5.726;2022-08-04T16:43:09;26.00;96.60
52517;DHT22;59374;53.210;5.726;2022-08-04T16:45:42;25.90;97.50
52517;DHT22;59374;53.210;5.726;2022-08-04T16:48:09;25.90;97.40
52517;DHT22;59374;53.210;5.726;2022-08-04T16:53:20;25.70;98.10
52517;DHT22;59374;53.210;5.726;2022-08-04T16:55:50;25.30;98.70
52517;DHT22;59374;53.210;5.726;2022-08-04T16:58:17;24.80;99.00
52517;DHT22;59374;53.210;5.726;2022-08-04T17:00:48;24.60;99.30
52517;DHT22;59374;53.210;5.726;2022-08-04T17:03:13;24.30;99.90
52517;DHT22;59374;53.210;5.726;2022-08-04T17:05:39;24.20;99.90
52517;DHT22;59374;53.210;5.726;2022-08-04T17:08:05;23.80;99.90
52517;DHT22;59374;53.210;5.726;2022-08-04T17:10:35;23.50;99.90
52517;DHT22;59374;53.210;5.726;2022-08-04T17:13:01;23.40;99.90
52517;DHT22;59374;53.210;5.726;2022-08-04T17:15:45;23.40;99.90
52517;DHT22;59374;53.210;5.726;2022-08-04T17:18:14;23.30;99.90
52517;DHT22;59374;53.210;5.726;2022-08-04T17:20:40;23.70;99.90
52517;DHT22;59374;53.210;5.726;2022-08-04T17:23:22;24.20;99.70
52517;DHT22;59374;53.210;5.726;2022-08-04T17:25:56;24.30;99.20
52517;DHT22;59374;53.210;5.726;2022-08-04T17:28:22;24.00;99.00
52517;DHT22;59374;53.210;5.726;2022-08-04T17:30:50;23.60;99.90
52517;DHT22;59374;53.210;5.726;2022-08-04T17:33:17;23.40;99.90
52517;DHT22;59374;53.210;5.726;2022-08-04T17:35:43;23.30;99.90
52517;DHT22;59374;53.210;5.726;2022-08-04T17:38:09;23.10;99.90
52517;DHT22;59374;53.210;5.726;2022-08-04T17:40:48;22.80;99.90
52517;DHT22;59374;53.210;5.726;2022-08-04T17:43:13;22.60;99.90
52517;DHT22;59374;53.210;5.726;2022-08-04T17:45:39;22.70;99.90
52517;DHT22;59374;53.210;5.726;2022-08-04T17:48:09;22.90;99.90
52517;DHT22;59374;53.210;5.726;2022-08-04T17:50:41;23.50;99.90
52517;DHT22;59374;53.210;5.726;2022-08-04T17:53:07;24.30;99.90
52517;DHT22;59374;53.210;5.726;2022-08-04T17:55:36;24.80;99.90
52517;DHT22;59374;53.210;5.726;2022-08-04T17:58:15;24.80;99.90
52517;DHT22;59374;53.210;5.726;2022-08-04T18:00:41;24.70;99.90
52517;DHT22;59374;53.210;5.726;2022-08-04T18:03:06;24.50;99.90
52517;DHT22;59374;53.210;5.726;2022-08-04T18:05:32;23.90;99.90
52517;DHT22;59374;53.210;5.726;2022-08-04T18:08:04;23.60;99.90
52517;DHT22;59374;53.210;5.726;2022-08-04T18:10:37;23.00;99.90
52517;DHT22;59374;53.210;5.726;2022-08-04T18:13:07;22.50;99.90
52517;DHT22;59374;53.210;5.726;2022-08-04T18:15:33;22.30;99.90
52517;DHT22;59374;53.210;5.726;2022-08-04T18:17:58;22.10;99.90
52517;DHT22;59374;53.210;5.726;2022-08-04T18:20:24;22.00;99.90
52517;DHT22;59374;53.210;5.726;2022-08-04T18:22:50;21.90;99.90
52517;DHT22;59374;53.210;5.726;2022-08-04T18:25:18;21.70;99.90
52517;DHT22;59374;53.210;5.726;2022-08-04T18:27:49;21.50;99.90
52517;DHT22;59374;53.210;5.726;2022-08-04T18:30:16;21.30;99.90
52517;DHT22;59374;53.210;5.726;2022-08-04T18:32:42;21.30;99.90
52517;DHT22;59374;53.210;5.726;2022-08-04T18:35:07;21.30;99.90
52517;DHT22;59374;53.210;5.726;2022-08-04T18:37:36;21.50;99.90
52517;DHT22;59374;53.210;5.726;2022-08-04T18:40:03;21.50;99.90
52517;DHT22;59374;53.210;5.726;2022-08-04T18:42:28;21.40;99.90
52517;DHT22;59374;53.210;5.726;2022-08-04T18:44:54;21.30;99.90
52517;DHT22;59374;53.210;5.726;2022-08-04T18:47:20;21.10;99.90
52517;DHT22;59374;53.210;5.726;2022-08-04T18:49:45;21.10;99.90
52517;DHT22;59374;53.210;5.726;2022-08-04T18:52:11;21.10;99.90
52517;DHT22;59374;53.210;5.726;2022-08-04T18:54:36;21.00;99.90
52517;DHT22;59374;53.210;5.726;2022-08-04T18:57:02;20.90;99.90
52517;DHT22;59374;53.210;5.726;2022-08-04T18:59:27;20.80;99.90
52517;DHT22;59374;53.210;5.726;2022-08-04T19:01:53;20.60;99.90
52517;DHT22;59374;53.210;5.726;2022-08-04T19:04:19;20.60;99.90
52517;DHT22;59374;53.210;5.726;2022-08-04T19:06:44;20.40;99.90
52517;DHT22;59374;53.210;5.726;2022-08-04T19:09:10;20.20;99.90
52517;DHT22;59374;53.210;5.726;2022-08-04T19:11:36;20.10;99.90
52517;DHT22;59374;53.210;5.726;2022-08-04T19:14:02;20.00;99.90
52517;DHT22;59374;53.210;5.726;2022-08-04T19:16:29;19.90;99.90
52517;DHT22;59374;53.210;5.726;2022-08-04T19:18:55;19.70;99.90
52517;DHT22;59374;53.210;5.726;2022-08-04T19:21:21;19.60;99.90
52517;DHT22;59374;53.210;5.726;2022-08-04T19:23:46;19.50;99.90
52517;DHT22;59374;53.210;5.726;2022-08-04T19:26:12;19.40;99.90
52517;DHT22;59374;53.210;5.726;2022-08-04T19:28:38;19.30;99.90
52517;DHT22;59374;53.210;5.726;2022-08-04T19:31:04;19.20;99.90
52517;DHT22;59374;53.210;5.726;2022-08-04T19:33:30;19.10;99.90
52517;DHT22;59374;53.210;5.726;2022-08-04T19:35:55;18.90;99.90
52517;DHT22;59374;53.210;5.726;2022-08-04T19:38:21;18.80;99.90
52517;DHT22;59374;53.210;5.726;2022-08-04T19:40:46;18.70;99.90
52517;DHT22;59374;53.210;5.726;2022-08-04T19:43:12;18.60;99.90